sensor_id;sensor_type;location;lat;lon;timestamp;P1;durP1;ratioP1;P2;durP2;ratioP2
12966;SDS011;6548;49.996;8.238;2023-01-28T00:01:12;3.05;;;1.63;;
12966;SDS011;6548;49.996;8.238;2023-01-28T00:03:38;3.13;;;2.10;;
12966;SDS011;6548;49.996;8.238;2023-01-28T00:06:05;1.70;;;1.60;;
12966;SDS011;6548;49.996;8.238;2023-01-28T00:08:33;2.88;;;2.00;;
12966;SDS011;6548;49.996;8.238;2023-01-28T00:10:59;4.43;;;1.70;;
12966;SDS011;6548;49.996;8.238;2023-01-28T00:13:26;3.65;;;2.00;;
12966;SDS011;6548;49.996;8.238;2023-01-28T00:15:55;5.38;;;1.92;;
12966;SDS011;6548;49.996;8.238;2023-01-28T00:18:28;2.35;;;1.50;;
12966;SDS011;6548;49.996;8.238;2023-01-28T00:21:03;1.52;;;1.42;;
12966;SDS011;6548;49.996;8.238;2023-01-28T00:23:35;2.67;;;1.70;;
12966;SDS011;6548;49.996;8.238;2023-01-28T00:26:02;4.40;;;1.77;;
12966;SDS011;6548;49.996;8.238;2023-01-28T00:28:30;2.72;;;1.60;;
12966;SDS011;6548;49.996;8.238;2023-01-28T00:30:56;3.67;;;1.67;;
12966;SDS011;6548;49.996;8.238;2023-01-28T00:33:22;2.10;;;1.40;;
12966;SDS011;6548;49.996;8.238;2023-01-28T00:35:56;2.78;;;1.90;;
12966;SDS011;6548;49.996;8.238;2023-01-28T00:38:25;2.47;;;1.42;;
12966;SDS011;6548;49.996;8.238;2023-01-28T00:40:51;2.72;;;1.80;;
12966;SDS011;6548;49.996;8.238;2023-01-28T00:43:17;2.30;;;1.52;;
12966;SDS011;6548;49.996;8.238;2023-01-28T00:45:43;1.52;;;1.40;;
12966;SDS011;6548;49.996;8.238;2023-01-28T00:48:08;2.33;;;1.35;;
12966;SDS011;6548;49.996;8.238;2023-01-28T00:50:34;2.20;;;1.55;;
12966;SDS011;6548;49.996;8.238;2023-01-28T00:52:59;2.70;;;1.75;;
12966;SDS011;6548;49.996;8.238;2023-01-28T00:55:25;1.95;;;1.63;;
12966;SDS011;6548;49.996;8.238;2023-01-28T00:57:52;2.63;;;1.63;;
12966;SDS011;6548;49.996;8.238;2023-01-28T01:00:18;2.95;;;1.95;;
12966;SDS011;6548;49.996;8.238;2023-01-28T01:02:51;2.42;;;1.75;;
12966;SDS011;6548;49.996;8.238;2023-01-28T01:05:16;2.53;;;2.33;;
12966;SDS011;6548;49.996;8.238;2023-01-28T01:07:42;3.33;;;1.70;;
12966;SDS011;6548;49.996;8.238;2023-01-28T01:10:12;2.58;;;1.83;;
12966;SDS011;6548;49.996;8.238;2023-01-28T01:12:44;1.90;;;1.70;;
12966;SDS011;6548;49.996;8.238;2023-01-28T01:15:11;2.47;;;1.30;;
12966;SDS011;6548;49.996;8.238;2023-01-28T01:17:37;2.35;;;1.90;;
12966;SDS011;6548;49.996;8.238;2023-01-28T01:20:04;3.75;;;1.98;;
12966;SDS011;6548;49.996;8.238;2023-01-28T01:22:32;2.47;;;1.67;;
12966;SDS011;6548;49.996;8.238;2023-01-28T01:24:59;2.78;;;1.60;;
12966;SDS011;6548;49.996;8.238;2023-01-28T01:27:24;2.60;;;1.80;;
12966;SDS011;6548;49.996;8.238;2023-01-28T01:29:50;3.90;;;1.80;;
12966;SDS011;6548;49.996;8.238;2023-01-28T01:32:16;3.53;;;2.25;;
12966;SDS011;6548;49.996;8.238;2023-01-28T01:34:42;3.00;;;1.88;;
12966;SDS011;6548;49.996;8.238;2023-01-28T01:37:08;4.72;;;2.00;;
12966;SDS011;6548;49.996;8.238;2023-01-28T01:39:34;2.05;;;1.30;;
12966;SDS011;6548;49.996;8.238;2023-01-28T01:42:00;2.47;;;1.73;;
12966;SDS011;6548;49.996;8.238;2023-01-28T01:47:31;2.45;;;1.45;;
12966;SDS011;6548;49.996;8.238;2023-01-28T01:50:11;1.70;;;1.35;;
12966;SDS011;6548;49.996;8.238;2023-01-28T01:52:59;2.35;;;1.35;;
12966;SDS011;6548;49.996;8.238;2023-01-28T01:55:33;2.25;;;1.55;;
12966;SDS011;6548;49.996;8.238;2023-01-28T01:58:01;2.75;;;1.60;;
12966;SDS011;6548;49.996;8.238;2023-01-28T02:00:31;1.88;;;1.30;;
12966;SDS011;6548;49.996;8.238;2023-01-28T02:02:56;2.03;;;1.30;;
12966;SDS011;6548;49.996;8.238;2023-01-28T02:05:23;1.88;;;1.30;;
12966;SDS011;6548;49.996;8.238;2023-01-28T02:07:49;2.50;;;1.33;;
12966;SDS011;6548;49.996;8.238;2023-01-28T02:10:19;3.05;;;1.33;;
12966;SDS011;6548;49.996;8.238;2023-01-28T02:12:51;1.30;;;1.20;;
12966;SDS011;6548;49.996;8.238;2023-01-28T02:15:21;1.30;;;1.02;;
12966;SDS011;6548;49.996;8.238;2023-01-28T02:17:49;2.58;;;1.40;;
12966;SDS011;6548;49.996;8.238;2023-01-28T02:20:20;2.63;;;1.55;;
12966;SDS011;6548;49.996;8.238;2023-01-28T02:22:54;2.58;;;1.20;;
12966;SDS011;6548;49.996;8.238;2023-01-28T02:25:44;1.75;;;1.40;;
12966;SDS011;6548;49.996;8.238;2023-01-28T02:31:21;1.30;;;1.08;;
12966;SDS011;6548;49.996;8.238;2023-01-28T02:36:38;1.50;;;1.08;;
12966;SDS011;6548;49.996;8.238;2023-01-28T02:39:20;1.92;;;1.08;;
12966;SDS011;6548;49.996;8.238;2023-01-28T02:42:17;1.92;;;1.40;;
12966;SDS011;6548;49.996;8.238;2023-01-28T02:44:43;0.90;;;0.80;;
12966;SDS011;6548;49.996;8.238;2023-01-28T02:47:09;2.50;;;1.33;;
12966;SDS011;6548;49.996;8.238;2023-01-28T02:49:54;3.97;;;1.83;;
12966;SDS011;6548;49.996;8.238;2023-01-28T02:55:43;3.20;;;1.25;;
12966;SDS011;6548;49.996;8.238;2023-01-28T03:01:16;1.55;;;1.02;;
12966;SDS011;6548;49.996;8.238;2023-01-28T03:03:57;1.85;;;1.40;;
12966;SDS011;6548;49.996;8.238;2023-01-28T03:06:35;3.03;;;1.92;;
12966;SDS011;6548;49.996;8.238;2023-01-28T03:09:05;1.58;;;1.05;;
12966;SDS011;6548;49.996;8.238;2023-01-28T03:14:36;5.07;;;1.67;;
12966;SDS011;6548;49.996;8.238;2023-01-28T03:17:24;1.65;;;0.93;;
12966;SDS011;6548;49.996;8.238;2023-01-28T03:20:15;2.17;;;1.40;;
12966;SDS011;6548;49.996;8.238;2023-01-28T03:23:00;2.45;;;1.30;;
12966;SDS011;6548;49.996;8.238;2023-01-28T03:25:51;2.85;;;1.45;;
12966;SDS011;6548;49.996;8.238;2023-01-28T03:28:38;2.08;;;1.17;;
12966;SDS011;6548;49.996;8.238;2023-01-28T03:31:25;1.85;;;1.15;;
12966;SDS011;6548;49.996;8.238;2023-01-28T03:34:09;1.95;;;1.40;;
12966;SDS011;6548;49.996;8.238;2023-01-28T03:36:54;2.08;;;1.67;;
12966;SDS011;6548;49.996;8.238;2023-01-28T03:39:21;2.83;;;1.15;;
12966;SDS011;6548;49.996;8.238;2023-01-28T03:42:00;3.20;;;1.27;;
12966;SDS011;6548;49.996;8.238;2023-01-28T03:44:28;2.55;;;1.35;;
12966;SDS011;6548;49.996;8.238;2023-01-28T03:47:13;1.35;;;1.15;;
12966;SDS011;6548;49.996;8.238;2023-01-28T03:49:42;1.73;;;1.27;;
12966;SDS011;6548;49.996;8.238;2023-01-28T03:52:09;2.17;;;1.98;;
12966;SDS011;6548;49.996;8.238;2023-01-28T03:54:39;1.48;;;1.05;;
12966;SDS011;6548;49.996;8.238;2023-01-28T03:57:05;1.10;;;1.00;;
12966;SDS011;6548;49.996;8.238;2023-01-28T03:59:33;2.85;;;1.67;;
12966;SDS011;6548;49.996;8.238;2023-01-28T04:01:59;2.53;;;1.30;;
12966;SDS011;6548;49.996;8.238;2023-01-28T04:04:27;1.45;;;1.15;;
12966;SDS011;6548;49.996;8.238;2023-01-28T04:06:55;2.03;;;1.05;;
12966;SDS011;6548;49.996;8.238;2023-01-28T04:09:20;1.23;;;1.10;;
12966;SDS011;6548;49.996;8.238;2023-01-28T04:11:46;1.08;;;0.90;;
12966;SDS011;6548;49.996;8.238;2023-01-28T04:14:12;2.17;;;1.20;;
12966;SDS011;6548;49.996;8.238;2023-01-28T04:16:39;1.92;;;0.95;;
12966;SDS011;6548;49.996;8.238;2023-01-28T04:19:06;2.00;;;1.10;;
12966;SDS011;6548;49.996;8.238;2023-01-28T04:21:31;1.15;;;1.00;;
12966;SDS011;6548;49.996;8.238;2023-01-28T04:23:57;1.10;;;1.00;;
12966;SDS011;6548;49.996;8.238;2023-01-28T04:26:22;1.27;;;1.17;;
12966;SDS011;6548;49.996;8.238;2023-01-28T04:28:48;1.90;;;1.17;;
12966;SDS011;6548;49.996;8.238;2023-01-28T04:31:14;1.45;;;0.90;;
12966;SDS011;6548;49.996;8.238;2023-01-28T04:33:39;1.67;;;1.00;;
12966;SDS011;6548;49.996;8.238;2023-01-28T04:36:05;1.15;;;1.05;;
12966;SDS011;6548;49.996;8.238;2023-01-28T04:38:30;0.82;;;0.80;;
12966;SDS011;6548;49.996;8.238;2023-01-28T04:40:56;0.68;;;0.55;;
12966;SDS011;6548;49.996;8.238;2023-01-28T04:43:21;1.05;;;0.80;;
12966;SDS011;6548;49.996;8.238;2023-01-28T04:45:47;1.10;;;1.00;;
12966;SDS011;6548;49.996;8.238;2023-01-28T04:48:13;1.52;;;0.88;;
12966;SDS011;6548;49.996;8.238;2023-01-28T04:50:40;2.30;;;0.85;;
12966;SDS011;6548;49.996;8.238;2023-01-28T04:53:06;1.92;;;0.95;;
12966;SDS011;6548;49.996;8.238;2023-01-28T04:55:32;1.70;;;1.50;;
12966;SDS011;6548;49.996;8.238;2023-01-28T04:57:58;2.17;;;1.00;;
12966;SDS011;6548;49.996;8.238;2023-01-28T05:00:23;1.17;;;0.80;;
12966;SDS011;6548;49.996;8.238;2023-01-28T05:02:49;1.30;;;1.02;;
12966;SDS011;6548;49.996;8.238;2023-01-28T05:05:14;1.92;;;0.98;;
12966;SDS011;6548;49.996;8.238;2023-01-28T05:07:40;2.40;;;1.20;;
12966;SDS011;6548;49.996;8.238;2023-01-28T05:10:06;1.67;;;1.58;;
12966;SDS011;6548;49.996;8.238;2023-01-28T05:12:32;1.23;;;0.70;;
12966;SDS011;6548;49.996;8.238;2023-01-28T05:14:58;2.25;;;1.15;;
12966;SDS011;6548;49.996;8.238;2023-01-28T05:17:28;1.98;;;0.90;;
12966;SDS011;6548;49.996;8.238;2023-01-28T05:19:53;1.73;;;1.00;;
12966;SDS011;6548;49.996;8.238;2023-01-28T05:22:19;1.90;;;1.42;;
12966;SDS011;6548;49.996;8.238;2023-01-28T05:24:45;1.45;;;0.93;;
12966;SDS011;6548;49.996;8.238;2023-01-28T05:27:10;2.10;;;1.35;;
12966;SDS011;6548;49.996;8.238;2023-01-28T05:29:36;1.42;;;1.10;;
12966;SDS011;6548;49.996;8.238;2023-01-28T05:32:01;1.70;;;1.27;;
12966;SDS011;6548;49.996;8.238;2023-01-28T05:34:28;2.15;;;1.55;;
12966;SDS011;6548;49.996;8.238;2023-01-28T05:36:54;2.38;;;1.52;;
12966;SDS011;6548;49.996;8.238;2023-01-28T05:39:19;1.80;;;1.25;;
12966;SDS011;6548;49.996;8.238;2023-01-28T05:41:45;2.38;;;1.10;;
12966;SDS011;6548;49.996;8.238;2023-01-28T05:44:10;1.10;;;1.00;;
12966;SDS011;6548;49.996;8.238;2023-01-28T05:46:36;1.58;;;1.10;;
12966;SDS011;6548;49.996;8.238;2023-01-28T05:49:01;1.33;;;0.98;;
12966;SDS011;6548;49.996;8.238;2023-01-28T05:51:27;1.60;;;1.08;;
12966;SDS011;6548;49.996;8.238;2023-01-28T05:53:52;1.52;;;1.17;;
12966;SDS011;6548;49.996;8.238;2023-01-28T05:56:18;4.10;;;1.00;;
12966;SDS011;6548;49.996;8.238;2023-01-28T05:58:43;1.33;;;1.02;;
12966;SDS011;6548;49.996;8.238;2023-01-28T06:01:09;1.10;;;0.82;;
12966;SDS011;6548;49.996;8.238;2023-01-28T06:03:35;1.30;;;0.88;;
12966;SDS011;6548;49.996;8.238;2023-01-28T06:06:00;1.67;;;1.23;;
12966;SDS011;6548;49.996;8.238;2023-01-28T06:08:26;2.25;;;1.75;;
12966;SDS011;6548;49.996;8.238;2023-01-28T06:10:51;1.27;;;1.17;;
12966;SDS011;6548;49.996;8.238;2023-01-28T06:13:17;2.05;;;1.20;;
12966;SDS011;6548;49.996;8.238;2023-01-28T06:15:42;1.55;;;0.90;;
12966;SDS011;6548;49.996;8.238;2023-01-28T06:18:08;1.48;;;1.20;;
12966;SDS011;6548;49.996;8.238;2023-01-28T06:20:33;2.60;;;1.30;;
12966;SDS011;6548;49.996;8.238;2023-01-28T06:22:59;1.70;;;0.90;;
12966;SDS011;6548;49.996;8.238;2023-01-28T06:25:25;1.25;;;1.15;;
12966;SDS011;6548;49.996;8.238;2023-01-28T06:27:50;1.90;;;1.48;;
12966;SDS011;6548;49.996;8.238;2023-01-28T06:30:16;3.15;;;1.45;;
12966;SDS011;6548;49.996;8.238;2023-01-28T06:32:41;1.40;;;1.10;;
12966;SDS011;6548;49.996;8.238;2023-01-28T06:35:08;2.67;;;1.40;;
12966;SDS011;6548;49.996;8.238;2023-01-28T06:37:34;2.55;;;1.20;;
12966;SDS011;6548;49.996;8.238;2023-01-28T06:40:00;1.52;;;1.25;;
12966;SDS011;6548;49.996;8.238;2023-01-28T06:42:25;1.60;;;1.27;;
12966;SDS011;6548;49.996;8.238;2023-01-28T06:44:51;2.95;;;1.60;;
12966;SDS011;6548;49.996;8.238;2023-01-28T06:47:16;1.75;;;1.30;;
12966;SDS011;6548;49.996;8.238;2023-01-28T06:49:42;2.63;;;1.42;;
12966;SDS011;6548;49.996;8.238;2023-01-28T06:52:07;1.48;;;1.20;;
12966;SDS011;6548;49.996;8.238;2023-01-28T06:54:33;2.45;;;1.52;;
12966;SDS011;6548;49.996;8.238;2023-01-28T06:56:58;3.20;;;1.50;;
12966;SDS011;6548;49.996;8.238;2023-01-28T06:59:24;2.47;;;1.70;;
12966;SDS011;6548;49.996;8.238;2023-01-28T07:01:49;3.03;;;1.30;;
12966;SDS011;6548;49.996;8.238;2023-01-28T07:04:15;2.97;;;1.95;;
12966;SDS011;6548;49.996;8.238;2023-01-28T07:06:41;1.45;;;1.30;;
12966;SDS011;6548;49.996;8.238;2023-01-28T07:09:06;1.65;;;1.25;;
12966;SDS011;6548;49.996;8.238;2023-01-28T07:11:32;2.17;;;1.35;;
12966;SDS011;6548;49.996;8.238;2023-01-28T07:13:57;4.10;;;1.80;;
12966;SDS011;6548;49.996;8.238;2023-01-28T07:16:23;3.45;;;1.83;;
12966;SDS011;6548;49.996;8.238;2023-01-28T07:18:48;3.47;;;1.90;;
12966;SDS011;6548;49.996;8.238;2023-01-28T07:21:15;5.78;;;2.35;;
12966;SDS011;6548;49.996;8.238;2023-01-28T07:23:40;3.22;;;2.17;;
12966;SDS011;6548;49.996;8.238;2023-01-28T07:26:06;2.60;;;1.77;;
12966;SDS011;6548;49.996;8.238;2023-01-28T07:28:32;6.95;;;3.38;;
12966;SDS011;6548;49.996;8.238;2023-01-28T07:30:57;4.95;;;3.58;;
12966;SDS011;6548;49.996;8.238;2023-01-28T07:33:23;6.70;;;3.20;;
12966;SDS011;6548;49.996;8.238;2023-01-28T07:35:49;13.07;;;5.13;;
12966;SDS011;6548;49.996;8.238;2023-01-28T07:38:14;5.20;;;2.70;;
12966;SDS011;6548;49.996;8.238;2023-01-28T07:40:40;3.13;;;2.33;;
12966;SDS011;6548;49.996;8.238;2023-01-28T07:43:09;2.53;;;2.25;;
12966;SDS011;6548;49.996;8.238;2023-01-28T07:45:35;7.72;;;3.47;;
12966;SDS011;6548;49.996;8.238;2023-01-28T07:48:02;7.07;;;2.92;;
12966;SDS011;6548;49.996;8.238;2023-01-28T07:50:30;5.28;;;2.47;;
12966;SDS011;6548;49.996;8.238;2023-01-28T07:52:58;5.13;;;2.60;;
12966;SDS011;6548;49.996;8.238;2023-01-28T07:55:26;4.63;;;2.88;;
12966;SDS011;6548;49.996;8.238;2023-01-28T07:57:55;4.85;;;2.22;;
12966;SDS011;6548;49.996;8.238;2023-01-28T08:00:24;2.97;;;2.08;;
12966;SDS011;6548;49.996;8.238;2023-01-28T08:02:55;7.25;;;2.72;;
12966;SDS011;6548;49.996;8.238;2023-01-28T08:05:22;6.88;;;3.08;;
12966;SDS011;6548;49.996;8.238;2023-01-28T08:07:50;4.05;;;1.92;;
12966;SDS011;6548;49.996;8.238;2023-01-28T08:10:17;2.90;;;1.70;;
12966;SDS011;6548;49.996;8.238;2023-01-28T08:12:53;3.28;;;1.98;;
12966;SDS011;6548;49.996;8.238;2023-01-28T08:15:20;5.18;;;1.90;;
12966;SDS011;6548;49.996;8.238;2023-01-28T08:17:46;4.60;;;2.00;;
12966;SDS011;6548;49.996;8.238;2023-01-28T08:20:12;4.07;;;2.75;;
12966;SDS011;6548;49.996;8.238;2023-01-28T08:22:38;3.80;;;1.80;;
12966;SDS011;6548;49.996;8.238;2023-01-28T08:25:04;4.13;;;1.95;;
12966;SDS011;6548;49.996;8.238;2023-01-28T08:27:29;3.17;;;2.40;;
12966;SDS011;6548;49.996;8.238;2023-01-28T08:29:55;2.50;;;1.67;;
12966;SDS011;6548;49.996;8.238;2023-01-28T08:32:20;4.53;;;2.60;;
12966;SDS011;6548;49.996;8.238;2023-01-28T08:34:46;4.40;;;2.38;;
12966;SDS011;6548;49.996;8.238;2023-01-28T08:37:11;3.25;;;2.30;;
12966;SDS011;6548;49.996;8.238;2023-01-28T08:39:37;1.83;;;1.50;;
12966;SDS011;6548;49.996;8.238;2023-01-28T08:42:03;2.38;;;1.67;;
12966;SDS011;6548;49.996;8.238;2023-01-28T08:44:30;2.63;;;1.33;;
12966;SDS011;6548;49.996;8.238;2023-01-28T08:46:55;2.13;;;1.73;;
12966;SDS011;6548;49.996;8.238;2023-01-28T08:49:21;2.78;;;1.48;;
12966;SDS011;6548;49.996;8.238;2023-01-28T08:51:46;1.33;;;1.20;;
12966;SDS011;6548;49.996;8.238;2023-01-28T08:54:13;2.92;;;1.85;;
12966;SDS011;6548;49.996;8.238;2023-01-28T08:56:38;2.35;;;1.75;;
12966;SDS011;6548;49.996;8.238;2023-01-28T08:59:06;2.65;;;1.70;;
12966;SDS011;6548;49.996;8.238;2023-01-28T09:01:32;1.50;;;1.40;;
12966;SDS011;6548;49.996;8.238;2023-01-28T09:03:58;1.95;;;1.33;;
12966;SDS011;6548;49.996;8.238;2023-01-28T09:06:23;5.22;;;2.13;;
12966;SDS011;6548;49.996;8.238;2023-01-28T09:08:49;2.45;;;1.52;;
12966;SDS011;6548;49.996;8.238;2023-01-28T09:11:14;2.08;;;1.17;;
12966;SDS011;6548;49.996;8.238;2023-01-28T09:13:40;2.33;;;1.67;;
12966;SDS011;6548;49.996;8.238;2023-01-28T09:16:05;5.22;;;2.00;;
12966;SDS011;6548;49.996;8.238;2023-01-28T09:18:31;3.88;;;1.80;;
12966;SDS011;6548;49.996;8.238;2023-01-28T09:20:57;4.15;;;1.50;;
12966;SDS011;6548;49.996;8.238;2023-01-28T09:23:29;4.15;;;1.70;;
12966;SDS011;6548;49.996;8.238;2023-01-28T09:25:58;1.65;;;1.35;;
12966;SDS011;6548;49.996;8.238;2023-01-28T09:28:25;2.55;;;1.42;;
12966;SDS011;6548;49.996;8.238;2023-01-28T09:30:50;4.57;;;1.58;;
12966;SDS011;6548;49.996;8.238;2023-01-28T09:33:16;2.97;;;1.60;;
12966;SDS011;6548;49.996;8.238;2023-01-28T09:35:41;2.38;;;1.27;;
12966;SDS011;6548;49.996;8.238;2023-01-28T09:38:07;3.63;;;1.80;;
12966;SDS011;6548;49.996;8.238;2023-01-28T09:45:59;2.40;;;1.30;;
12966;SDS011;6548;49.996;8.238;2023-01-28T09:48:33;1.70;;;1.50;;
12966;SDS011;6548;49.996;8.238;2023-01-28T09:51:02;1.48;;;1.15;;
12966;SDS011;6548;49.996;8.238;2023-01-28T09:53:44;2.50;;;1.52;;
12966;SDS011;6548;49.996;8.238;2023-01-28T09:56:13;2.83;;;1.13;;
12966;SDS011;6548;49.996;8.238;2023-01-28T09:58:49;3.63;;;1.83;;
12966;SDS011;6548;49.996;8.238;2023-01-28T10:01:29;2.00;;;1.40;;
12966;SDS011;6548;49.996;8.238;2023-01-28T10:09:55;2.28;;;1.30;;
12966;SDS011;6548;49.996;8.238;2023-01-28T10:12:55;1.45;;;1.20;;
12966;SDS011;6548;49.996;8.238;2023-01-28T10:15:40;4.05;;;1.30;;
12966;SDS011;6548;49.996;8.238;2023-01-28T10:18:31;1.77;;;1.42;;
12966;SDS011;6548;49.996;8.238;2023-01-28T10:24:13;1.42;;;1.13;;
12966;SDS011;6548;49.996;8.238;2023-01-28T10:26:44;3.28;;;1.33;;
12966;SDS011;6548;49.996;8.238;2023-01-28T10:29:16;2.20;;;1.60;;
12966;SDS011;6548;49.996;8.238;2023-01-28T10:32:44;2.30;;;1.77;;
12966;SDS011;6548;49.996;8.238;2023-01-28T10:34:45;2.22;;;1.20;;
12966;SDS011;6548;49.996;8.238;2023-01-28T10:37:12;2.13;;;1.40;;
12966;SDS011;6548;49.996;8.238;2023-01-28T10:39:38;2.80;;;1.98;;
12966;SDS011;6548;49.996;8.238;2023-01-28T10:42:26;2.10;;;1.58;;
12966;SDS011;6548;49.996;8.238;2023-01-28T10:44:56;2.67;;;1.50;;
12966;SDS011;6548;49.996;8.238;2023-01-28T10:47:43;1.65;;;1.50;;
12966;SDS011;6548;49.996;8.238;2023-01-28T10:50:29;3.13;;;1.50;;
12966;SDS011;6548;49.996;8.238;2023-01-28T10:52:56;2.65;;;1.60;;
12966;SDS011;6548;49.996;8.238;2023-01-28T10:56:06;2.42;;;1.40;;
12966;SDS011;6548;49.996;8.238;2023-01-28T10:58:21;2.28;;;1.35;;
12966;SDS011;6548;49.996;8.238;2023-01-28T11:00:56;2.78;;;1.48;;
12966;SDS011;6548;49.996;8.238;2023-01-28T11:03:25;4.00;;;1.55;;
12966;SDS011;6548;49.996;8.238;2023-01-28T11:05:58;3.22;;;1.30;;
12966;SDS011;6548;49.996;8.238;2023-01-28T11:08:26;1.52;;;1.38;;
12966;SDS011;6548;49.996;8.238;2023-01-28T11:10:53;3.22;;;1.50;;
12966;SDS011;6548;49.996;8.238;2023-01-28T11:15:52;3.92;;;1.20;;
12966;SDS011;6548;49.996;8.238;2023-01-28T11:18:26;2.38;;;1.45;;
12966;SDS011;6548;49.996;8.238;2023-01-28T11:21:02;1.58;;;1.48;;
12966;SDS011;6548;49.996;8.238;2023-01-28T11:23:34;3.92;;;1.63;;
12966;SDS011;6548;49.996;8.238;2023-01-28T11:26:14;2.65;;;1.80;;
12966;SDS011;6548;49.996;8.238;2023-01-28T11:28:46;2.90;;;1.98;;
12966;SDS011;6548;49.996;8.238;2023-01-28T11:31:13;1.77;;;1.58;;
12966;SDS011;6548;49.996;8.238;2023-01-28T11:33:59;2.95;;;1.77;;
12966;SDS011;6548;49.996;8.238;2023-01-28T11:36:27;3.97;;;1.73;;
12966;SDS011;6548;49.996;8.238;2023-01-28T11:41:27;4.07;;;1.92;;
12966;SDS011;6548;49.996;8.238;2023-01-28T11:43:57;5.75;;;1.15;;
12966;SDS011;6548;49.996;8.238;2023-01-28T11:46:44;2.67;;;1.13;;
12966;SDS011;6548;49.996;8.238;2023-01-28T11:49:37;2.80;;;1.40;;
12966;SDS011;6548;49.996;8.238;2023-01-28T11:52:34;2.00;;;1.65;;
12966;SDS011;6548;49.996;8.238;2023-01-28T11:55:23;3.92;;;1.27;;
12966;SDS011;6548;49.996;8.238;2023-01-28T11:58:18;5.65;;;1.50;;
12966;SDS011;6548;49.996;8.238;2023-01-28T12:03:47;2.35;;;1.20;;
12966;SDS011;6548;49.996;8.238;2023-01-28T12:17:41;3.22;;;1.50;;
12966;SDS011;6548;49.996;8.238;2023-01-28T12:20:30;3.75;;;1.80;;
12966;SDS011;6548;49.996;8.238;2023-01-28T12:28:43;3.53;;;1.90;;
12966;SDS011;6548;49.996;8.238;2023-01-28T12:37:08;2.10;;;1.42;;
12966;SDS011;6548;49.996;8.238;2023-01-28T12:42:43;1.30;;;0.90;;
12966;SDS011;6548;49.996;8.238;2023-01-28T12:45:15;3.72;;;1.85;;
12966;SDS011;6548;49.996;8.238;2023-01-28T12:47:53;2.80;;;1.98;;
12966;SDS011;6548;49.996;8.238;2023-01-28T12:50:27;5.65;;;1.75;;
12966;SDS011;6548;49.996;8.238;2023-01-28T12:52:58;3.20;;;1.90;;
12966;SDS011;6548;49.996;8.238;2023-01-28T12:55:38;2.60;;;1.33;;
12966;SDS011;6548;49.996;8.238;2023-01-28T12:58:17;1.60;;;0.90;;
12966;SDS011;6548;49.996;8.238;2023-01-28T13:00:49;3.13;;;1.90;;
12966;SDS011;6548;49.996;8.238;2023-01-28T13:03:20;2.28;;;1.55;;
12966;SDS011;6548;49.996;8.238;2023-01-28T13:06:02;1.33;;;1.13;;
12966;SDS011;6548;49.996;8.238;2023-01-28T13:08:32;3.75;;;1.70;;
12966;SDS011;6548;49.996;8.238;2023-01-28T13:10:59;1.65;;;1.20;;
12966;SDS011;6548;49.996;8.238;2023-01-28T13:13:31;1.67;;;1.08;;
12966;SDS011;6548;49.996;8.238;2023-01-28T13:15:58;1.70;;;1.30;;
12966;SDS011;6548;49.996;8.238;2023-01-28T13:18:29;1.80;;;1.25;;
12966;SDS011;6548;49.996;8.238;2023-01-28T13:23:24;1.83;;;0.82;;
12966;SDS011;6548;49.996;8.238;2023-01-28T13:28:40;1.52;;;0.77;;
12966;SDS011;6548;49.996;8.238;2023-01-28T13:31:07;1.70;;;0.85;;
12966;SDS011;6548;49.996;8.238;2023-01-28T13:33:39;1.15;;;0.73;;
12966;SDS011;6548;49.996;8.238;2023-01-28T13:39:01;2.20;;;0.93;;
12966;SDS011;6548;49.996;8.238;2023-01-28T13:41:37;2.45;;;1.00;;
12966;SDS011;6548;49.996;8.238;2023-01-28T13:46:55;1.08;;;0.90;;
12966;SDS011;6548;49.996;8.238;2023-01-28T13:49:44;1.00;;;0.90;;
12966;SDS011;6548;49.996;8.238;2023-01-28T13:52:21;1.15;;;1.00;;
12966;SDS011;6548;49.996;8.238;2023-01-28T13:54:58;1.10;;;1.00;;
12966;SDS011;6548;49.996;8.238;2023-01-28T14:20:16;2.72;;;1.08;;
12966;SDS011;6548;49.996;8.238;2023-01-28T14:22:42;2.90;;;1.13;;
12966;SDS011;6548;49.996;8.238;2023-01-28T14:25:13;1.70;;;1.25;;
12966;SDS011;6548;49.996;8.238;2023-01-28T14:27:45;1.77;;;1.10;;
12966;SDS011;6548;49.996;8.238;2023-01-28T14:32:53;2.72;;;1.02;;
12966;SDS011;6548;49.996;8.238;2023-01-28T14:35:29;1.73;;;1.05;;
12966;SDS011;6548;49.996;8.238;2023-01-28T14:37:56;1.83;;;1.50;;
12966;SDS011;6548;49.996;8.238;2023-01-28T14:40:24;2.50;;;1.10;;
12966;SDS011;6548;49.996;8.238;2023-01-28T14:42:53;3.03;;;1.35;;
12966;SDS011;6548;49.996;8.238;2023-01-28T14:48:22;1.83;;;1.33;;
12966;SDS011;6548;49.996;8.238;2023-01-28T14:56:49;1.98;;;1.40;;
12966;SDS011;6548;49.996;8.238;2023-01-28T15:02:11;1.73;;;1.02;;
12966;SDS011;6548;49.996;8.238;2023-01-28T15:04:42;1.27;;;1.17;;
12966;SDS011;6548;49.996;8.238;2023-01-28T15:09:44;1.38;;;1.13;;
12966;SDS011;6548;49.996;8.238;2023-01-28T15:12:10;1.50;;;1.00;;
12966;SDS011;6548;49.996;8.238;2023-01-28T15:14:37;4.22;;;1.15;;
12966;SDS011;6548;49.996;8.238;2023-01-28T15:17:04;1.58;;;1.20;;
12966;SDS011;6548;49.996;8.238;2023-01-28T15:19:33;2.40;;;1.45;;
12966;SDS011;6548;49.996;8.238;2023-01-28T15:22:02;2.60;;;1.17;;
12966;SDS011;6548;49.996;8.238;2023-01-28T15:24:30;1.35;;;1.20;;
12966;SDS011;6548;49.996;8.238;2023-01-28T15:26:58;1.67;;;1.05;;
12966;SDS011;6548;49.996;8.238;2023-01-28T15:29:33;9.23;;;2.70;;
12966;SDS011;6548;49.996;8.238;2023-01-28T15:32:00;3.55;;;2.05;;
12966;SDS011;6548;49.996;8.238;2023-01-28T15:34:27;2.42;;;1.30;;
12966;SDS011;6548;49.996;8.238;2023-01-28T15:36:57;2.22;;;1.50;;
12966;SDS011;6548;49.996;8.238;2023-01-28T15:39:24;1.83;;;1.17;;
12966;SDS011;6548;49.996;8.238;2023-01-28T15:41:55;2.50;;;1.45;;
12966;SDS011;6548;49.996;8.238;2023-01-28T15:47:13;2.17;;;1.10;;
12966;SDS011;6548;49.996;8.238;2023-01-28T15:49:48;1.67;;;1.15;;
12966;SDS011;6548;49.996;8.238;2023-01-28T15:52:16;1.27;;;1.17;;
12966;SDS011;6548;49.996;8.238;2023-01-28T15:54:49;2.55;;;1.40;;
12966;SDS011;6548;49.996;8.238;2023-01-28T15:57:17;2.13;;;1.17;;
12966;SDS011;6548;49.996;8.238;2023-01-28T15:59:49;2.33;;;1.30;;
12966;SDS011;6548;49.996;8.238;2023-01-28T16:02:26;4.57;;;1.40;;
12966;SDS011;6548;49.996;8.238;2023-01-28T16:05:03;3.58;;;1.40;;
12966;SDS011;6548;49.996;8.238;2023-01-28T16:07:41;2.83;;;1.43;;
12966;SDS011;6548;49.996;8.238;2023-01-28T16:10:18;2.03;;;1.55;;
12966;SDS011;6548;49.996;8.238;2023-01-28T16:13:05;1.58;;;1.10;;
12966;SDS011;6548;49.996;8.238;2023-01-28T16:15:34;4.38;;;1.90;;
12966;SDS011;6548;49.996;8.238;2023-01-28T16:18:02;2.35;;;1.50;;
12966;SDS011;6548;49.996;8.238;2023-01-28T16:20:29;2.72;;;1.63;;
12966;SDS011;6548;49.996;8.238;2023-01-28T16:22:57;3.53;;;1.40;;
12966;SDS011;6548;49.996;8.238;2023-01-28T16:25:28;2.85;;;1.25;;
12966;SDS011;6548;49.996;8.238;2023-01-28T16:27:56;2.08;;;1.10;;
12966;SDS011;6548;49.996;8.238;2023-01-28T16:30:23;2.58;;;1.40;;
12966;SDS011;6548;49.996;8.238;2023-01-28T16:32:49;2.08;;;1.20;;
12966;SDS011;6548;49.996;8.238;2023-01-28T16:35:22;3.15;;;1.88;;
12966;SDS011;6548;49.996;8.238;2023-01-28T16:37:50;3.88;;;1.60;;
12966;SDS011;6548;49.996;8.238;2023-01-28T16:40:17;1.50;;;1.40;;
12966;SDS011;6548;49.996;8.238;2023-01-28T16:42:44;2.17;;;1.55;;
12966;SDS011;6548;49.996;8.238;2023-01-28T16:47:47;1.35;;;1.20;;
12966;SDS011;6548;49.996;8.238;2023-01-28T16:50:13;3.40;;;1.52;;
12966;SDS011;6548;49.996;8.238;2023-01-28T16:52:40;2.58;;;1.67;;
12966;SDS011;6548;49.996;8.238;2023-01-28T16:55:11;3.08;;;1.30;;
12966;SDS011;6548;49.996;8.238;2023-01-28T16:57:38;3.00;;;1.27;;
12966;SDS011;6548;49.996;8.238;2023-01-28T17:00:04;2.00;;;1.80;;
12966;SDS011;6548;49.996;8.238;2023-01-28T17:02:31;3.28;;;1.60;;
12966;SDS011;6548;49.996;8.238;2023-01-28T17:04:56;5.28;;;2.25;;
12966;SDS011;6548;49.996;8.238;2023-01-28T17:07:22;1.70;;;1.40;;
12966;SDS011;6548;49.996;8.238;2023-01-28T17:09:48;1.55;;;1.45;;
12966;SDS011;6548;49.996;8.238;2023-01-28T17:12:13;1.48;;;1.38;;
12966;SDS011;6548;49.996;8.238;2023-01-28T17:14:39;1.58;;;1.30;;
12966;SDS011;6548;49.996;8.238;2023-01-28T17:17:05;1.85;;;1.50;;
12966;SDS011;6548;49.996;8.238;2023-01-28T17:19:30;4.22;;;1.95;;